Time;durP1;ratioP1;P1;durP2;ratioP2;P2;SDS_P1;SDS_P2;PMS_P1;PMS_P2;Temp;Humidity;BMP_temperature;BMP_pressure;BME280_temperature;BME280_humidity;BME280_pressure;Samples;Min_cycle;Max_cycle;Signal;HPM_P1;HPM_P2
2023/07/01 00:00:28;;;;;;;46.88;42.60;;;16.50;99.90;;;;;;5070894;28;20043;-71
2023/07/01 00:02:54;;;;;;;44.22;39.08;;;16.20;99.90;;;;;;5075745;28;20866;-71
2023/07/01 00:05:20;;;;;;;45.42;41.45;;;16.50;99.90;;;;;;5069675;28;20367;-71
2023/07/01 00:07:47;;;;;;;59.22;55.28;;;16.20;99.90;;;;;;5078834;28;20063;-73
2023/07/01 00:10:12;;;;;;;41.58;38.38;;;16.30;99.90;;;;;;5073934;28;20833;-73
2023/07/01 00:12:38;;;;;;;48.67;45.40;;;16.10;99.90;;;;;;5073358;28;20041;-71
2023/07/01 00:15:04;;;;;;;46.35;43.45;;;16.10;99.90;;;;;;5074592;28;20032;-73
2023/07/01 00:17:30;;;;;;;44.90;41.72;;;16.10;99.90;;;;;;5053342;28;20036;-72
2023/07/01 00:19:56;;;;;;;28.42;26.02;;;16.30;99.90;;;;;;5037954;28;20040;-73
2023/07/01 00:22:21;;;;;;;39.05;36.15;;;15.90;99.90;;;;;;5077414;28;20044;-73
2023/07/01 00:24:47;;;;;;;47.80;44.60;;;16.10;99.90;;;;;;5072177;28;20068;-73
2023/07/01 00:27:12;;;;;;;49.17;45.90;;;16.00;99.90;;;;;;5068827;28;20021;-73
2023/07/01 00:29:38;;;;;;;48.80;44.95;;;16.10;99.90;;;;;;5071839;28;20044;-73
2023/07/01 00:32:04;;;;;;;39.13;36.58;;;16.10;99.90;;;;;;5074672;28;20032;-73
2023/07/01 00:34:30;;;;;;;43.55;40.55;;;15.90;99.90;;;;;;5066068;28;20546;-73
2023/07/01 00:36:56;;;;;;;44.65;40.85;;;15.70;99.90;;;;;;5069070;28;20189;-73
2023/07/01 00:39:21;;;;;;;40.45;37.88;;;15.90;99.90;;;;;;5078007;28;20040;-73
2023/07/01 00:41:53;;;;;;;44.00;40.70;;;15.60;99.90;;;;;;5068600;28;20636;-73
2023/07/01 00:44:20;;;;;;;37.20;34.28;;;15.70;99.90;;;;;;5065754;28;20017;-73
2023/07/01 00:46:46;;;;;;;38.13;35.42;;;15.50;99.90;;;;;;5079025;28;20505;-73
2023/07/01 00:49:12;;;;;;;46.35;43.33;;;15.60;99.90;;;;;;5072087;28;20044;-73
2023/07/01 00:51:38;;;;;;;42.75;40.10;;;15.00;99.90;;;;;;5088996;28;20028;-73
2023/07/01 00:54:03;;;;;;;40.97;38.17;;;15.10;99.90;;;;;;5055448;28;20036;-73
2023/07/01 00:56:30;;;;;;;43.05;40.13;;;15.00;99.90;;;;;;5076153;28;20399;-72
2023/07/01 00:58:55;;;;;;;41.67;38.85;;;15.10;99.90;;;;;;5080712;28;20111;-72
2023/07/01 01:01:28;;;;;;;46.00;43.40;;;14.90;99.90;;;;;;5078838;28;20166;-73
2023/07/01 01:04:09;;;;;;;40.20;37.40;;;15.00;99.90;;;;;;5076424;28;20020;-73
2023/07/01 01:06:45;;;;;;;39.50;36.70;;;14.90;99.90;;;;;;5082919;28;20486;-72
2023/07/01 01:09:50;;;;;;;32.35;29.73;;;15.00;99.90;;;;;;5085143;28;20040;-73
2023/07/01 01:12:17;;;;;;;27.88;25.50;;;14.90;99.90;;;;;;5076525;28;20123;-72
2023/07/01 01:14:43;;;;;;;31.73;29.40;;;14.90;99.90;;;;;;5079911;28;20042;-72
2023/07/01 01:17:13;;;;;;;41.65;38.35;;;14.80;99.90;;;;;;5076370;28;20486;-72
2023/07/01 01:19:42;;;;;;;;;;;14.80;99.90;;;;;;5079964;28;20037;-72
2023/07/01 01:22:30;;;;;;;29.17;27.20;;;14.60;99.90;;;;;;5074090;28;19916;-72
2023/07/01 01:25:05;;;;;;;26.65;24.85;;;14.70;99.90;;;;;;5076474;28;20032;-72
2023/07/01 01:27:37;;;;;;;32.22;29.88;;;14.60;99.90;;;;;;5078298;28;20059;-72
2023/07/01 01:30:06;;;;;;;34.28;31.67;;;14.70;99.90;;;;;;5075796;28;20024;-72
2023/07/01 01:32:33;;;;;;;34.80;32.45;;;14.60;99.90;;;;;;5076408;28;20040;-72
2023/07/01 01:35:00;;;;;;;31.70;29.75;;;14.60;99.90;;;;;;5076921;28;20051;-74
2023/07/01 01:38:06;;;;;;;34.25;32.33;;;14.70;99.90;;;;;;5071985;28;20040;-73
2023/07/01 01:40:47;;;;;;;30.38;28.17;;;14.60;99.90;;;;;;5063598;28;20516;-72
2023/07/01 01:43:24;;;;;;;34.83;32.28;;;14.60;99.90;;;;;;5057160;28;20505;-72
2023/07/01 01:45:50;;;;;;;31.40;28.65;;;14.70;99.90;;;;;;5073180;28;20490;-72
2023/07/01 01:48:16;;;;;;;30.70;28.67;;;14.70;99.90;;;;;;5074216;28;20414;-73
2023/07/01 01:50:49;;;;;;;33.28;31.13;;;14.60;99.90;;;;;;5078379;28;20024;-72
2023/07/01 01:53:15;;;;;;;27.25;25.38;;;14.50;99.90;;;;;;5076319;28;20032;-72
2023/07/01 01:55:41;;;;;;;27.92;26.08;;;14.50;99.90;;;;;;5075493;28;20505;-72
2023/07/01 01:58:07;;;;;;;26.58;24.55;;;14.60;99.90;;;;;;5079905;28;20036;-72
2023/07/01 02:00:34;;;;;;;28.40;26.13;;;14.50;99.90;;;;;;5073295;28;20043;-72
2023/07/01 02:03:01;;;;;;;29.20;26.48;;;14.50;99.90;;;;;;5089325;28;20162;-73
2023/07/01 02:05:27;;;;;;;29.42;27.08;;;14.60;99.90;;;;;;5077745;28;20032;-72
2023/07/01 02:07:53;;;;;;;25.02;23.15;;;14.60;99.90;;;;;;5054559;28;20028;-72
2023/07/01 02:10:21;;;;;;;20.15;18.60;;;14.60;99.90;;;;;;5075678;28;20411;-73
2023/07/01 02:12:48;;;;;;;22.88;21.15;;;14.50;99.90;;;;;;5081628;28;20037;-73
2023/07/01 02:15:14;;;;;;;20.05;18.60;;;14.50;99.90;;;;;;5070868;28;20055;-72
2023/07/01 02:17:39;;;;;;;20.95;19.38;;;14.40;99.90;;;;;;5074846;28;20485;-73
2023/07/01 02:20:06;;;;;;;20.13;18.48;;;14.50;99.90;;;;;;5073423;28;20443;-72
2023/07/01 02:22:32;;;;;;;22.30;19.67;;;14.40;99.90;;;;;;5076591;28;20088;-72
2023/07/01 02:24:58;;;;;;;26.88;23.73;;;14.40;99.90;;;;;;5075883;28;20138;-72
2023/07/01 02:27:24;;;;;;;26.45;24.38;;;14.40;99.90;;;;;;5073478;28;20040;-72
2023/07/01 02:29:50;;;;;;;27.88;25.60;;;14.40;99.90;;;;;;5077766;28;20036;-72
2023/07/01 02:32:15;;;;;;;27.48;25.23;;;14.50;99.90;;;;;;5075873;28;20036;-73
2023/07/01 02:34:41;;;;;;;22.30;20.52;;;14.50;99.90;;;;;;5077216;28;20039;-72
2023/07/01 02:37:07;;;;;;;28.73;26.05;;;14.40;99.90;;;;;;5077354;28;20071;-72
2023/07/01 02:39:32;;;;;;;20.33;18.73;;;14.40;99.90;;;;;;5075039;28;20032;-72
2023/07/01 02:41:58;;;;;;;21.52;19.30;;;14.40;99.90;;;;;;5073992;28;20037;-73
2023/07/01 02:44:24;;;;;;;19.40;17.60;;;14.30;99.90;;;;;;5077562;28;20033;-73
2023/07/01 02:46:49;;;;;;;19.35;17.45;;;14.30;99.90;;;;;;5071991;28;20024;-73
2023/07/01 02:49:15;;;;;;;19.80;18.30;;;14.20;99.90;;;;;;5074900;28;20414;-71
2023/07/01 02:51:41;;;;;;;19.88;18.20;;;14.30;99.90;;;;;;5072293;28;20115;-73
2023/07/01 02:54:07;;;;;;;18.73;17.52;;;14.20;99.90;;;;;;5073617;28;20055;-72
2023/07/01 02:56:33;;;;;;;19.30;17.50;;;14.30;99.90;;;;;;5076387;28;20055;-73
2023/07/01 02:58:58;;;;;;;17.90;16.50;;;14.20;99.90;;;;;;5073125;28;20028;-73
2023/07/01 03:01:24;;;;;;;16.88;15.68;;;14.30;99.90;;;;;;5073912;28;20546;-73
2023/07/01 03:03:51;;;;;;;20.52;19.02;;;14.20;99.90;;;;;;5078002;28;20052;-73
2023/07/01 03:06:17;;;;;;;18.83;17.20;;;14.30;99.90;;;;;;5070871;28;20033;-73
2023/07/01 03:08:42;;;;;;;17.58;16.23;;;14.20;99.90;;;;;;5078286;28;20810;-72
2023/07/01 03:11:08;;;;;;;18.42;16.95;;;14.20;99.90;;;;;;5078149;28;20040;-73
2023/07/01 03:13:37;;;;;;;21.05;19.13;;;14.20;99.90;;;;;;5076762;28;20039;-72
2023/07/01 03:16:03;;;;;;;20.83;19.02;;;14.30;99.90;;;;;;5079041;28;20498;-73
2023/07/01 03:18:29;;;;;;;19.48;17.92;;;14.30;99.90;;;;;;5074425;28;20120;-73
2023/07/01 03:20:57;;;;;;;23.45;21.60;;;14.20;99.90;;;;;;5077909;28;20115;-73
2023/07/01 03:23:23;;;;;;;18.98;17.40;;;14.20;99.90;;;;;;5077065;28;20059;-73
2023/07/01 03:25:49;;;;;;;18.75;17.25;;;14.30;99.90;;;;;;5071443;28;20028;-72
2023/07/01 03:28:14;;;;;;;18.40;16.65;;;14.30;99.90;;;;;;5079923;28;20032;-72
2023/07/01 03:30:40;;;;;;;19.25;17.73;;;14.30;99.90;;;;;;5075674;28;20028;-73
2023/07/01 03:33:06;;;;;;;18.65;17.27;;;14.30;99.90;;;;;;5055073;28;20043;-73
2023/07/01 03:35:32;;;;;;;18.55;16.88;;;14.30;99.90;;;;;;5076457;28;20047;-71
2023/07/01 03:37:57;;;;;;;20.40;18.25;;;14.30;99.90;;;;;;5072432;28;20036;-72
2023/07/01 03:40:23;;;;;;;21.15;19.10;;;14.30;99.90;;;;;;5089936;28;20036;-72
2023/07/01 03:42:48;;;;;;;20.60;18.52;;;14.40;99.90;;;;;;5075817;28;20418;-73
2023/07/01 03:45:14;;;;;;;23.75;22.15;;;14.30;99.90;;;;;;5070923;28;20040;-72
2023/07/01 03:47:45;;;;;;;23.08;21.17;;;14.30;99.90;;;;;;5075259;28;20389;-72
2023/07/01 03:50:12;;;;;;;22.10;20.38;;;14.40;99.90;;;;;;5069751;28;20027;-72
2023/07/01 03:52:39;;;;;;;25.13;23.20;;;14.40;99.90;;;;;;5072396;28;20116;-73
2023/07/01 03:55:07;;;;;;;28.02;25.95;;;14.40;99.90;;;;;;5071982;28;20031;-73
2023/07/01 03:57:33;;;;;;;25.42;23.73;;;14.40;99.90;;;;;;5071399;28;20094;-72
2023/07/01 03:59:59;;;;;;;25.80;23.50;;;14.30;99.90;;;;;;5078053;28;20481;-72
2023/07/01 04:02:25;;;;;;;21.88;20.38;;;14.50;99.90;;;;;;5056065;28;20044;-73
2023/07/01 04:04:51;;;;;;;22.83;20.95;;;14.40;99.90;;;;;;5071937;28;20028;-72
2023/07/01 04:07:21;;;;;;;21.58;19.80;;;14.40;99.90;;;;;;5075247;28;20494;-72
2023/07/01 04:09:50;;;;;;;20.45;18.70;;;14.40;99.90;;;;;;5071596;28;20502;-73
2023/07/01 04:12:16;;;;;;;21.05;19.13;;;14.50;99.90;;;;;;5072338;28;20058;-72
2023/07/01 04:14:42;;;;;;;24.63;22.52;;;14.40;99.90;;;;;;5069910;28;20044;-72
2023/07/01 04:17:07;;;;;;;20.40;18.67;;;14.30;99.90;;;;;;5086212;28;20035;-72
2023/07/01 04:19:33;;;;;;;20.35;18.55;;;14.40;99.90;;;;;;5077328;28;20123;-72
2023/07/01 04:21:59;;;;;;;22.27;20.35;;;14.40;99.90;;;;;;5073182;28;20036;-72
2023/07/01 04:24:25;;;;;;;20.42;18.50;;;14.50;99.90;;;;;;5036011;28;1132837;-72
2023/07/01 04:26:52;;;;;;;23.98;18.35;;;14.50;99.90;;;;;;5089971;28;20036;-72
2023/07/01 04:29:17;;;;;;;21.45;19.15;;;14.60;99.90;;;;;;5073283;28;20029;-73
2023/07/01 04:31:43;;;;;;;28.27;26.27;;;14.60;99.90;;;;;;5094338;28;20510;-72
2023/07/01 04:34:08;;;;;;;22.83;21.05;;;14.70;99.90;;;;;;5059620;28;20033;-72
2023/07/01 04:36:34;;;;;;;26.67;24.20;;;14.80;99.90;;;;;;5060976;28;20166;-72
2023/07/01 04:39:00;;;;;;;21.65;19.80;;;14.80;99.90;;;;;;5082454;28;20069;-72
2023/07/01 04:41:25;;;;;;;25.55;22.85;;;14.90;99.90;;;;;;5077756;28;20044;-73
2023/07/01 04:43:51;;;;;;;22.35;20.52;;;14.90;99.90;;;;;;5076301;28;20037;-73
2023/07/01 04:46:16;;;;;;;22.05;20.30;;;15.00;99.90;;;;;;5080781;28;20029;-72
2023/07/01 04:48:42;;;;;;;22.88;20.83;;;14.90;99.90;;;;;;5075575;28;20035;-72
2023/07/01 04:51:08;;;;;;;21.30;19.70;;;15.00;99.90;;;;;;5076007;28;20024;-73
2023/07/01 04:53:33;;;;;;;21.10;19.38;;;15.20;99.90;;;;;;5079029;28;21054;-73
2023/07/01 04:55:59;;;;;;;20.85;18.88;;;15.20;99.90;;;;;;5073690;28;20070;-73
2023/07/01 04:58:24;;;;;;;20.88;19.05;;;15.10;99.90;;;;;;5079064;28;20056;-72
2023/07/01 05:00:51;;;;;;;24.00;21.88;;;15.20;99.90;;;;;;5076289;28;20114;-72
2023/07/01 05:03:16;;;;;;;21.65;19.98;;;15.20;99.90;;;;;;5077592;28;20036;-72
2023/07/01 05:05:42;;;;;;;22.13;20.25;;;15.30;99.90;;;;;;5078816;28;20478;-72
2023/07/01 05:08:08;;;;;;;24.20;22.02;;;15.30;99.90;;;;;;5071856;28;20475;-73
2023/07/01 05:10:33;;;;;;;22.73;20.98;;;15.30;99.90;;;;;;5076609;28;20107;-72
2023/07/01 05:12:59;;;;;;;22.52;20.65;;;15.50;99.90;;;;;;5077751;28;20129;-72
2023/07/01 05:15:25;;;;;;;27.05;24.95;;;15.50;99.90;;;;;;5072219;28;20047;-72
2023/07/01 05:17:50;;;;;;;31.27;29.35;;;15.50;99.90;;;;;;5076547;28;20036;-73
2023/07/01 05:20:16;;;;;;;26.00;24.27;;;15.60;99.90;;;;;;5075647;28;20048;-72
2023/07/01 05:22:41;;;;;;;30.20;27.77;;;15.60;99.90;;;;;;5075634;28;20048;-72
2023/07/01 05:25:08;;;;;;;31.02;29.27;;;15.70;99.90;;;;;;5080984;28;20028;-72
2023/07/01 05:27:33;;;;;;;37.17;35.00;;;15.70;99.90;;;;;;5074722;28;20033;-72
2023/07/01 05:29:59;;;;;;;33.35;31.02;;;15.60;99.90;;;;;;5075464;28;20398;-72
2023/07/01 05:32:25;;;;;;;33.72;31.42;;;15.70;99.90;;;;;;5076959;28;20383;-73
2023/07/01 05:34:51;;;;;;;34.40;31.92;;;15.60;99.90;;;;;;5074186;28;20064;-73
2023/07/01 05:37:16;;;;;;;31.35;29.05;;;15.70;99.90;;;;;;5077700;28;20113;-72
2023/07/01 05:39:42;;;;;;;32.00;29.75;;;15.70;99.90;;;;;;5076341;28;20494;-73
2023/07/01 05:42:08;;;;;;;31.15;28.85;;;15.70;99.90;;;;;;5076654;28;20042;-73
2023/07/01 05:44:33;;;;;;;33.05;30.85;;;15.80;99.90;;;;;;5079056;28;20021;-73
2023/07/01 05:46:59;;;;;;;34.05;31.90;;;15.80;99.90;;;;;;5076151;28;20058;-72
2023/07/01 05:49:25;;;;;;;44.42;41.92;;;15.90;99.90;;;;;;5068561;28;20486;-72
2023/07/01 05:51:51;;;;;;;46.17;43.47;;;15.90;99.90;;;;;;5075259;28;20521;-74
2023/07/01 05:54:16;;;;;;;37.90;35.72;;;16.10;99.90;;;;;;5068941;28;20037;-71
2023/07/01 05:56:42;;;;;;;43.47;41.28;;;16.30;99.90;;;;;;5073371;28;20039;-74
2023/07/01 05:59:08;;;;;;;38.85;36.45;;;16.50;99.90;;;;;;5076238;28;20036;-73
2023/07/01 06:01:33;;;;;;;34.20;31.98;;;16.50;99.90;;;;;;5079832;28;20036;-73
2023/07/01 06:03:59;;;;;;;39.63;37.28;;;16.50;99.90;;;;;;5075433;28;20051;-74
2023/07/01 06:06:25;;;;;;;42.55;40.03;;;16.60;99.90;;;;;;5075054;28;20044;-76
2023/07/01 06:08:51;;;;;;;34.67;32.30;;;16.60;99.90;;;;;;5080174;28;20024;-74
2023/07/01 06:11:16;;;;;;;32.95;30.52;;;16.70;99.90;;;;;;5075744;28;20439;-74
2023/07/01 06:13:46;;;;;;;32.20;29.90;;;16.70;99.90;;;;;;5073368;28;20548;-70
2023/07/01 06:16:13;;;;;;;30.15;27.88;;;16.70;99.90;;;;;;5075269;28;20035;-75
2023/07/01 06:18:38;;;;;;;33.72;31.60;;;16.90;99.90;;;;;;5074252;28;20028;-73
2023/07/01 06:21:06;;;;;;;31.77;29.48;;;16.80;99.90;;;;;;5058305;28;20028;-73
2023/07/01 06:23:33;;;;;;;28.75;26.88;;;16.90;99.90;;;;;;5074334;28;20453;-73
2023/07/01 06:25:58;;;;;;;35.65;33.13;;;17.10;99.90;;;;;;5088397;28;20036;-73
2023/07/01 06:28:24;;;;;;;31.92;30.08;;;17.30;99.90;;;;;;5075433;28;20028;-72
2023/07/01 06:30:50;;;;;;;41.42;39.22;;;17.50;99.90;;;;;;5074475;28;20024;-73
2023/07/01 06:33:16;;;;;;;33.67;31.60;;;17.30;99.90;;;;;;5069603;28;20123;-73
2023/07/01 06:35:43;;;;;;;37.30;35.20;;;17.50;99.90;;;;;;5075708;28;20127;-74
2023/07/01 06:38:09;;;;;;;33.95;32.05;;;17.60;99.70;;;;;;5074013;28;20045;-73
2023/07/01 06:40:35;;;;;;;31.90;30.10;;;17.70;99.90;;;;;;5078612;28;20028;-73
2023/07/01 06:43:02;;;;;;;43.15;41.05;;;17.70;98.90;;;;;;5054289;28;20387;-73
2023/07/01 06:45:28;;;;;;;39.80;37.70;;;17.60;99.30;;;;;;5073929;28;20060;-73
2023/07/01 06:47:54;;;;;;;37.03;34.88;;;17.90;98.10;;;;;;5080178;28;20533;-73
2023/07/01 06:50:20;;;;;;;36.85;34.90;;;18.30;96.20;;;;;;5075925;28;20096;-73
2023/07/01 06:52:45;;;;;;;40.17;37.60;;;18.40;95.10;;;;;;5093324;28;20683;-73
2023/07/01 06:55:13;;;;;;;33.72;31.75;;;18.50;95.90;;;;;;5079385;28;20052;-73
2023/07/01 06:57:40;;;;;;;36.30;34.25;;;18.50;94.80;;;;;;5074775;28;20035;-72
2023/07/01 07:00:09;;;;;;;44.38;42.03;;;18.30;95.60;;;;;;5076289;28;20032;-72
2023/07/01 07:02:35;;;;;;;41.33;39.45;;;18.50;95.60;;;;;;5072795;28;20033;-71
2023/07/01 07:05:02;;;;;;;39.55;37.47;;;18.70;94.50;;;;;;5073828;28;20111;-72
2023/07/01 07:07:27;;;;;;;36.33;34.35;;;18.80;94.50;;;;;;5079098;28;20036;-72
2023/07/01 07:09:53;;;;;;;33.58;31.58;;;19.30;92.80;;;;;;5087660;28;20056;-72
2023/07/01 07:12:19;;;;;;;43.83;41.75;;;19.50;92.20;;;;;;5075905;28;20112;-72
2023/07/01 07:14:44;;;;;;;32.10;30.27;;;18.80;91.80;;;;;;5075388;28;20034;-71
2023/07/01 07:17:10;;;;;;;28.77;27.27;;;18.50;91.80;;;;;;5056123;28;20036;-71
2023/07/01 07:19:37;;;;;;;28.17;26.80;;;18.10;92.00;;;;;;5074685;28;20048;-72
2023/07/01 07:22:03;;;;;;;47.15;44.85;;;18.00;93.50;;;;;;5073652;28;20032;-71
2023/07/01 07:24:28;;;;;;;33.72;31.85;;;17.90;93.90;;;;;;5075468;28;20040;-71
2023/07/01 07:26:56;;;;;;;23.20;21.92;;;17.80;94.50;;;;;;5072732;28;20041;-72
2023/07/01 07:29:22;;;;;;;37.78;34.65;;;18.00;93.00;;;;;;5086360;28;20020;-72
2023/07/01 07:31:48;;;;;;;23.42;22.20;;;17.90;93.00;;;;;;5076007;28;20032;-72
2023/07/01 07:34:14;;;;;;;34.85;33.05;;;17.80;93.60;;;;;;5054906;28;20517;-73
2023/07/01 07:36:40;;;;;;;48.05;45.53;;;17.90;93.50;;;;;;5071831;28;20097;-72
2023/07/01 07:39:06;;;;;;;29.05;27.48;;;17.50;95.00;;;;;;5077439;28;20121;-72
2023/07/01 07:41:32;;;;;;;22.75;21.15;;;17.70;93.00;;;;;;5090516;28;20024;-72
2023/07/01 07:43:57;;;;;;;45.10;43.15;;;17.90;93.40;;;;;;5073128;28;20024;-73
2023/07/01 07:46:23;;;;;;;32.03;30.05;;;18.30;93.10;;;;;;5075963;28;20032;-73
2023/07/01 07:48:49;;;;;;;27.35;25.77;;;18.30;92.30;;;;;;5072267;28;20070;-73
2023/07/01 07:51:15;;;;;;;41.53;39.40;;;18.40;91.40;;;;;;5076437;28;20033;-72
2023/07/01 07:53:41;;;;;;;44.13;42.08;;;18.30;92.50;;;;;;5074577;28;20024;-72
2023/07/01 07:56:07;;;;;;;37.67;35.80;;;17.90;93.60;;;;;;5051825;28;20032;-72
2023/07/01 07:58:32;;;;;;;27.38;25.75;;;17.90;94.20;;;;;;5056294;28;20043;-73
2023/07/01 08:00:58;;;;;;;36.83;34.92;;;18.10;93.50;;;;;;5069968;28;20105;-72
2023/07/01 08:03:23;;;;;;;22.75;21.25;;;18.20;94.10;;;;;;5073000;28;20119;-72
2023/07/01 08:05:50;;;;;;;22.52;21.13;;;17.90;92.20;;;;;;5089707;28;20029;-72
2023/07/01 08:08:15;;;;;;;19.65;18.55;;;17.50;87.30;;;;;;5053790;28;20044;-74
2023/07/01 08:10:45;;;;;;;20.58;19.35;;;17.30;90.00;;;;;;5073442;28;20024;-76
2023/07/01 08:13:12;;;;;;;19.63;18.60;;;17.30;89.80;;;;;;5053779;28;21646;-76
2023/07/01 08:15:38;;;;;;;19.58;18.27;;;17.30;90.20;;;;;;5072202;28;20043;-75
2023/07/01 08:18:04;;;;;;;22.48;21.08;;;17.50;91.70;;;;;;5073958;28;20047;-78
2023/07/01 08:20:30;;;;;;;28.00;26.58;;;17.60;91.90;;;;;;5072322;28;20040;-75
2023/07/01 08:22:55;;;;;;;29.92;28.15;;;17.90;92.30;;;;;;5068145;28;20076;-76
2023/07/01 08:25:21;;;;;;;34.25;32.22;;;18.70;90.60;;;;;;5073868;28;20115;-75
2023/07/01 08:27:47;;;;;;;30.50;28.90;;;19.70;89.30;;;;;;5069071;28;20060;-75
2023/07/01 08:30:12;;;;;;;17.42;16.42;;;19.80;88.80;;;;;;5068459;28;20037;-76
2023/07/01 08:32:40;;;;;;;18.52;17.33;;;20.00;81.40;;;;;;5070345;28;20098;-75
2023/07/01 08:35:06;;;;;;;22.92;21.63;;;20.20;82.90;;;;;;5069457;28;20808;-75
2023/07/01 08:37:32;;;;;;;26.85;25.48;;;20.00;83.30;;;;;;5084258;28;20033;-75
2023/07/01 08:39:58;;;;;;;17.70;16.70;;;19.80;79.00;;;;;;5068086;28;20032;-75
2023/07/01 08:42:34;;;;;;;20.48;18.88;;;19.80;82.10;;;;;;5084529;28;20524;-75
2023/07/01 08:45:02;;;;;;;25.10;23.90;;;19.30;81.20;;;;;;5068408;28;20106;-76
2023/07/01 08:47:29;;;;;;;24.38;22.98;;;19.10;82.30;;;;;;5069922;28;20029;-75
2023/07/01 08:49:58;;;;;;;23.00;21.65;;;19.30;82.70;;;;;;5056759;28;20033;-75
2023/07/01 08:52:29;;;;;;;31.35;29.85;;;19.20;83.60;;;;;;5074649;28;20036;-75
2023/07/01 08:54:55;;;;;;;39.58;37.78;;;19.00;79.60;;;;;;5070572;28;20040;-75
2023/07/01 08:57:21;;;;;;;26.20;24.75;;;19.00;78.30;;;;;;5074694;28;20028;-75
2023/07/01 08:59:50;;;;;;;22.38;21.23;;;19.30;80.10;;;;;;5069283;28;20032;-75
2023/07/01 09:02:16;;;;;;;23.13;21.85;;;19.80;82.30;;;;;;5072457;28;20090;-75
2023/07/01 09:04:41;;;;;;;19.20;17.98;;;20.10;79.30;;;;;;5090515;28;20032;-74
2023/07/01 09:07:08;;;;;;;22.23;21.08;;;20.90;74.30;;;;;;5070878;28;20024;-74
2023/07/01 09:09:34;;;;;;;17.00;15.85;;;20.50;71.60;;;;;;5055234;28;20024;-74
2023/07/01 09:12:00;;;;;;;20.20;18.92;;;20.70;79.50;;;;;;5072068;28;20062;-75
2023/07/01 09:14:25;;;;;;;19.77;18.08;;;21.20;71.40;;;;;;5072792;28;20037;-75
2023/07/01 09:16:51;;;;;;;31.10;29.60;;;21.00;72.50;;;;;;5076252;28;20479;-74
2023/07/01 09:19:18;;;;;;;27.65;26.25;;;20.20;74.80;;;;;;5075550;28;20522;-75
2023/07/01 09:21:44;;;;;;;22.42;21.25;;;19.70;72.30;;;;;;5061890;28;20447;-74
2023/07/01 09:24:11;;;;;;;21.35;20.10;;;19.30;74.40;;;;;;5055883;28;20080;-74
2023/07/01 09:26:38;;;;;;;24.65;23.25;;;19.10;76.00;;;;;;5076175;28;20624;-74
2023/07/01 09:29:15;;;;;;;17.85;16.75;;;19.10;74.40;;;;;;5080340;28;20054;-74
2023/07/01 09:31:49;;;;;;;23.52;22.27;;;19.50;75.80;;;;;;5074535;28;20740;-73
2023/07/01 09:34:16;;;;;;;15.65;14.75;;;19.70;73.10;;;;;;5080049;28;21041;-74
2023/07/01 09:36:42;;;;;;;19.08;17.65;;;19.50;74.30;;;;;;5079526;28;20044;-73
2023/07/01 09:39:08;;;;;;;16.48;15.05;;;19.30;74.40;;;;;;5074756;28;20024;-73
2023/07/01 09:41:34;;;;;;;19.15;18.15;;;19.30;76.00;;;;;;5076968;28;20035;-74
2023/07/01 09:44:00;;;;;;;19.30;18.20;;;20.20;74.60;;;;;;5076095;28;20541;-73
2023/07/01 09:46:43;;;;;;;19.35;18.25;;;20.30;70.40;;;;;;5076805;28;20398;-74
2023/07/01 09:49:09;;;;;;;21.77;20.50;;;21.10;74.10;;;;;;5057902;28;20032;-74
2023/07/01 09:51:48;;;;;;;25.48;23.98;;;21.70;69.70;;;;;;5039315;28;20078;-74
2023/07/01 09:54:30;;;;;;;23.35;21.95;;;21.70;64.40;;;;;;5079256;28;20039;-74
2023/07/01 09:56:58;;;;;;;19.05;18.10;;;20.60;65.50;;;;;;5057156;28;20033;-74
2023/07/01 09:59:25;;;;;;;20.75;19.55;;;20.90;64.10;;;;;;5059528;28;20125;-74
2023/07/01 10:01:55;;;;;;;19.70;18.50;;;21.80;66.40;;;;;;5078453;28;20024;-74
2023/07/01 10:04:25;;;;;;;33.00;30.45;;;22.20;61.80;;;;;;5071893;28;20031;-74
2023/07/01 10:06:53;;;;;;;19.75;18.55;;;22.20;56.60;;;;;;5079578;28;20038;-74
2023/07/01 10:09:18;;;;;;;32.03;30.50;;;21.70;58.50;;;;;;5071849;28;20036;-73
2023/07/01 10:11:44;;;;;;;18.90;17.77;;;21.60;58.50;;;;;;5074930;28;20028;-74
2023/07/01 10:14:11;;;;;;;59.53;56.45;;;21.80;62.40;;;;;;5091516;28;20062;-73
2023/07/01 10:16:49;;;;;;;31.00;29.60;;;21.00;59.60;;;;;;5058515;28;20031;-74
2023/07/01 10:19:31;;;;;;;23.23;22.05;;;21.50;58.60;;;;;;5072729;28;20032;-74
2023/07/01 10:22:23;;;;;;;20.25;19.27;;;22.50;61.60;;;;;;5072893;28;20036;-74
2023/07/01 10:25:04;;;;;;;52.78;50.30;;;22.80;57.80;;;;;;5074147;28;20131;-74
2023/07/01 10:27:44;;;;;;;21.85;20.75;;;22.80;55.40;;;;;;5053882;28;20033;-74
2023/07/01 10:30:12;;;;;;;65.38;62.78;;;22.70;60.20;;;;;;5072587;28;20615;-73
2023/07/01 10:32:37;;;;;;;56.58;54.40;;;22.80;56.10;;;;;;5076708;28;20032;-73
2023/07/01 10:35:03;;;;;;;86.72;83.57;;;22.90;55.60;;;;;;5073650;28;20101;-74
2023/07/01 10:37:31;;;;;;;86.25;83.00;;;22.90;53.10;;;;;;5077466;28;20055;-76
2023/07/01 10:39:58;;;;;;;80.63;77.60;;;23.50;55.80;;;;;;5056873;28;20032;-74
2023/07/01 10:42:31;;;;;;;143.35;137.73;;;23.40;51.20;;;;;;5070279;28;20067;-74
2023/07/01 10:45:12;;;;;;;95.97;92.53;;;22.00;51.90;;;;;;5070237;28;20056;-74
2023/07/01 10:47:38;;;;;;;74.38;71.57;;;22.10;54.70;;;;;;5074690;28;20083;-75
2023/07/01 10:50:08;;;;;;;83.20;80.00;;;22.90;56.80;;;;;;5070247;28;20469;-75
2023/07/01 10:52:54;;;;;;;;;;;23.30;56.60;;;;;;5073880;28;20028;-75
2023/07/01 10:55:43;;;;;;;66.03;63.38;;;23.20;52.20;;;;;;5075357;28;19912;-76
2023/07/01 10:58:26;;;;;;;210.50;199.17;;;24.00;52.70;;;;;;5074335;28;20035;-76
2023/07/01 11:00:53;;;;;;;304.38;283.10;;;22.90;48.90;;;;;;5072375;28;20033;-76
2023/07/01 11:03:37;;;;;;;119.10;114.43;;;23.00;48.30;;;;;;5051039;28;20033;-76
2023/07/01 11:06:10;;;;;;;304.35;291.67;;;23.40;49.10;;;;;;5076416;28;20028;-74
2023/07/01 11:08:47;;;;;;;321.20;308.95;;;23.60;51.70;;;;;;5071550;28;20028;-75
2023/07/01 11:11:25;;;;;;;423.67;404.23;;;23.50;48.30;;;;;;5070364;28;20506;-75
2023/07/01 11:13:59;;;;;;;1999.90;999.90;;;23.00;49.70;;;;;;5075077;28;20112;-74
2023/07/01 11:16:26;;;;;;;474.95;451.88;;;23.50;44.60;;;;;;5070017;28;20482;-74
2023/07/01 11:18:54;;;;;;;546.67;520.42;;;23.50;50.10;;;;;;5088795;28;20124;-74
2023/07/01 11:21:24;;;;;;;1582.40;828.13;;;24.10;47.90;;;;;;5084039;28;20509;-76
2023/07/01 11:23:57;;;;;;;1530.43;778.90;;;24.20;47.90;;;;;;5074746;28;20044;-75
2023/07/01 11:26:29;;;;;;;1999.90;999.90;;;24.70;46.90;;;;;;5052987;28;20093;-77
2023/07/01 11:28:55;;;;;;;880.65;613.03;;;25.50;42.50;;;;;;5069606;28;20115;-76
2023/07/01 11:31:25;;;;;;;741.53;479.98;;;25.50;44.50;;;;;;5071534;28;20155;-76
2023/07/01 11:33:54;;;;;;;420.95;399.38;;;25.40;45.60;;;;;;5074057;28;20028;-76
2023/07/01 11:36:34;;;;;;;1999.90;999.90;;;25.60;45.70;;;;;;5074208;28;20036;-77
2023/07/01 11:39:09;;;;;;;1999.90;999.90;;;26.00;44.40;;;;;;5076191;28;20047;-76
2023/07/01 11:41:37;;;;;;;1999.90;999.90;;;26.00;41.70;;;;;;5083756;28;20079;-76
2023/07/01 11:44:05;;;;;;;1999.90;999.90;;;25.30;42.30;;;;;;5074405;28;20056;-75
2023/07/01 11:46:54;;;;;;;1999.90;999.90;;;26.00;41.00;;;;;;5075241;28;20029;-76
2023/07/01 11:49:26;;;;;;;1999.90;999.90;;;26.00;40.00;;;;;;5069950;28;20032;-76
2023/07/01 11:51:55;;;;;;;1999.90;999.90;;;25.60;39.80;;;;;;5071776;28;20432;-76
2023/07/01 11:54:41;;;;;;;1999.90;999.90;;;25.60;41.50;;;;;;5067108;28;20068;-76
2023/07/01 11:57:14;;;;;;;1999.90;999.90;;;25.40;40.70;;;;;;5076418;28;20056;-76
2023/07/01 12:00:08;;;;;;;1999.90;999.90;;;25.10;38.70;;;;;;5052671;28;20515;-76
2023/07/01 12:02:34;;;;;;;1999.90;999.90;;;23.80;41.70;;;;;;5069950;28;20048;-76
2023/07/01 12:05:01;;;;;;;1999.90;999.90;;;24.90;41.90;;;;;;5071945;28;20036;-76
2023/07/01 12:07:27;;;;;;;1999.90;999.90;;;24.80;41.20;;;;;;5065118;28;20029;-76
2023/07/01 12:09:53;;;;;;;1999.90;999.90;;;25.10;38.40;;;;;;5075268;28;20039;-76
2023/07/01 12:12:36;;;;;;;1999.90;999.90;;;25.40;40.30;;;;;;5072668;28;20087;-76
2023/07/01 12:15:02;;;;;;;1999.90;999.90;;;25.80;40.20;;;;;;5069177;28;20588;-76
2023/07/01 12:17:30;;;;;;;1999.90;999.90;;;25.50;36.10;;;;;;5076377;28;20538;-76
2023/07/01 12:19:58;;;;;;;1999.90;999.90;;;26.10;39.60;;;;;;5074317;28;20113;-76
2023/07/01 12:22:27;;;;;;;1999.90;999.90;;;25.60;39.60;;;;;;5069230;28;20052;-76
2023/07/01 12:24:55;;;;;;;1999.90;999.90;;;25.80;40.80;;;;;;5073204;28;20108;-76
2023/07/01 12:27:21;;;;;;;1999.90;999.90;;;27.40;38.70;;;;;;5071148;28;20036;-76